Terminal Aerodrome Forecast
Issued by NWS Shreveport, LA

Current Version | Previous Version | Text Only | Print | Product List | Glossary On
Versions: 1 2 3 4 5 6 7 8 9 10 11 12 13 14 15 16 17 18 19 20
000
FTUS44 KSHV 021733
TAFMLU
TAF
KMLU 021733Z 0218/0318 23013G18KT P6SM SCT040 BKN150 BKN250
     FM022300 22007KT P6SM FEW050 SCT180 BKN250
     FM031200 22005KT P6SM SCT120 BKN150 OVC250=

USA.gov is the U.S. government's official web portal to all federal, state and local government web resources and services.